sensor_id;sensor_type;location;lat;lon;timestamp;pressure;altitude;pressure_sealevel;temperature;humidity
74403;BME280;62837;51.082;13.744;2022-09-09T00:01:56;99969.09;;;16.63;68.92
74403;BME280;62837;51.082;13.744;2022-09-09T00:04:32;99970.48;;;16.53;69.18
74403;BME280;62837;51.082;13.744;2022-09-09T00:07:07;99973.41;;;16.42;69.17
74403;BME280;62837;51.082;13.744;2022-09-09T00:09:47;99973.25;;;16.31;69.52
74403;BME280;62837;51.082;13.744;2022-09-09T00:12:27;99973.11;;;16.26;69.60
74403;BME280;62837;51.082;13.744;2022-09-09T00:15:05;99972.48;;;16.21;69.70
74403;BME280;62837;51.082;13.744;2022-09-09T00:17:41;99970.28;;;16.12;70.00
74403;BME280;62837;51.082;13.744;2022-09-09T00:20:19;99969.13;;;16.06;70.25
74403;BME280;62837;51.082;13.744;2022-09-09T00:22:57;99966.74;;;16.02;70.31
74403;BME280;62837;51.082;13.744;2022-09-09T00:25:34;99966.66;;;16.01;70.52
74403;BME280;62837;51.082;13.744;2022-09-09T00:28:16;99961.50;;;16.05;70.60
74403;BME280;62837;51.082;13.744;2022-09-09T00:30:48;99954.88;;;16.05;70.78
74403;BME280;62837;51.082;13.744;2022-09-09T00:33:22;99953.20;;;16.04;70.63
74403;BME280;62837;51.082;13.744;2022-09-09T00:35:57;99953.85;;;16.04;70.67
74403;BME280;62837;51.082;13.744;2022-09-09T00:38:31;99954.55;;;16.05;70.53
74403;BME280;62837;51.082;13.744;2022-09-09T00:41:08;99960.68;;;16.04;70.47
74403;BME280;62837;51.082;13.744;2022-09-09T00:43:41;99963.48;;;16.02;70.55
74403;BME280;62837;51.082;13.744;2022-09-09T00:46:21;99962.55;;;15.95;70.74
74403;BME280;62837;51.082;13.744;2022-09-09T00:49:02;99964.59;;;15.86;70.67
74403;BME280;62837;51.082;13.744;2022-09-09T00:51:43;99967.61;;;15.91;70.96
74403;BME280;62837;51.082;13.744;2022-09-09T00:54:31;99963.25;;;15.87;70.68
74403;BME280;62837;51.082;13.744;2022-09-09T00:57:16;99962.48;;;15.81;70.88
74403;BME280;62837;51.082;13.744;2022-09-09T00:59:57;99968.17;;;15.75;70.65
74403;BME280;62837;51.082;13.744;2022-09-09T01:02:30;99971.38;;;15.75;70.64
74403;BME280;62837;51.082;13.744;2022-09-09T01:05:07;99968.35;;;15.71;70.60
74403;BME280;62837;51.082;13.744;2022-09-09T01:07:41;99968.21;;;15.73;70.62
74403;BME280;62837;51.082;13.744;2022-09-09T01:10:21;99964.10;;;15.74;70.84
74403;BME280;62837;51.082;13.744;2022-09-09T01:12:58;99977.77;;;15.81;70.59
74403;BME280;62837;51.082;13.744;2022-09-09T01:15:34;99978.81;;;15.82;70.52
74403;BME280;62837;51.082;13.744;2022-09-09T01:18:04;99974.56;;;15.78;70.58
74403;BME280;62837;51.082;13.744;2022-09-09T01:20:44;99970.92;;;15.70;70.85
74403;BME280;62837;51.082;13.744;2022-09-09T01:23:33;99974.06;;;15.71;70.85
74403;BME280;62837;51.082;13.744;2022-09-09T01:26:27;99980.45;;;15.71;70.84
74403;BME280;62837;51.082;13.744;2022-09-09T01:29:06;99982.29;;;15.70;71.03
74403;BME280;62837;51.082;13.744;2022-09-09T01:31:51;99978.15;;;15.69;71.05
74403;BME280;62837;51.082;13.744;2022-09-09T01:34:25;99975.55;;;15.75;71.17
74403;BME280;62837;51.082;13.744;2022-09-09T01:36:59;99968.42;;;15.80;70.87
74403;BME280;62837;51.082;13.744;2022-09-09T01:39:35;99973.44;;;15.84;71.22
74403;BME280;62837;51.082;13.744;2022-09-09T01:42:12;99972.05;;;15.85;70.82
74403;BME280;62837;51.082;13.744;2022-09-09T01:44:44;99968.54;;;15.83;70.54
74403;BME280;62837;51.082;13.744;2022-09-09T01:47:15;99972.65;;;15.83;70.72
74403;BME280;62837;51.082;13.744;2022-09-09T01:50:02;99962.70;;;15.77;70.70
74403;BME280;62837;51.082;13.744;2022-09-09T01:52:36;99963.26;;;15.74;70.83
74403;BME280;62837;51.082;13.744;2022-09-09T01:55:11;99963.56;;;15.76;70.64
74403;BME280;62837;51.082;13.744;2022-09-09T01:57:48;99961.89;;;15.76;70.69
74403;BME280;62837;51.082;13.744;2022-09-09T02:00:22;99963.67;;;15.73;70.59
74403;BME280;62837;51.082;13.744;2022-09-09T02:03:04;99956.83;;;15.68;70.54
74403;BME280;62837;51.082;13.744;2022-09-09T02:05:48;99951.46;;;15.60;70.52
74403;BME280;62837;51.082;13.744;2022-09-09T02:08:35;99956.51;;;15.57;70.81
74403;BME280;62837;51.082;13.744;2022-09-09T02:11:13;99952.13;;;15.54;70.86
74403;BME280;62837;51.082;13.744;2022-09-09T02:13:50;99954.59;;;15.56;71.06
74403;BME280;62837;51.082;13.744;2022-09-09T02:16:24;99959.16;;;15.58;71.01
74403;BME280;62837;51.082;13.744;2022-09-09T02:19:00;99958.98;;;15.62;71.15
74403;BME280;62837;51.082;13.744;2022-09-09T02:21:39;99961.39;;;15.66;70.88
74403;BME280;62837;51.082;13.744;2022-09-09T02:24:12;99959.20;;;15.63;70.86
74403;BME280;62837;51.082;13.744;2022-09-09T02:26:51;99961.52;;;15.62;71.07
74403;BME280;62837;51.082;13.744;2022-09-09T02:29:27;99964.44;;;15.60;70.89
74403;BME280;62837;51.082;13.744;2022-09-09T02:32:03;99965.27;;;15.53;70.96
74403;BME280;62837;51.082;13.744;2022-09-09T02:34:38;99965.66;;;15.48;71.18
74403;BME280;62837;51.082;13.744;2022-09-09T02:37:12;99959.93;;;15.45;70.91
74403;BME280;62837;51.082;13.744;2022-09-09T02:39:47;99961.33;;;15.45;70.99
74403;BME280;62837;51.082;13.744;2022-09-09T02:42:20;99962.41;;;15.40;71.12
74403;BME280;62837;51.082;13.744;2022-09-09T02:44:52;99963.48;;;15.39;71.14
74403;BME280;62837;51.082;13.744;2022-09-09T02:47:28;99965.18;;;15.37;71.23
74403;BME280;62837;51.082;13.744;2022-09-09T02:50:13;99964.09;;;15.31;71.44
74403;BME280;62837;51.082;13.744;2022-09-09T02:52:54;99964.11;;;15.27;71.68
74403;BME280;62837;51.082;13.744;2022-09-09T02:55:39;99966.43;;;15.28;71.57
74403;BME280;62837;51.082;13.744;2022-09-09T02:58:14;99963.69;;;15.29;71.53
74403;BME280;62837;51.082;13.744;2022-09-09T03:00:50;99964.41;;;15.32;71.59
74403;BME280;62837;51.082;13.744;2022-09-09T03:03:22;99960.34;;;15.30;71.40
74403;BME280;62837;51.082;13.744;2022-09-09T03:05:53;99966.05;;;15.28;71.73
74403;BME280;62837;51.082;13.744;2022-09-09T03:08:24;99964.00;;;15.27;71.58
74403;BME280;62837;51.082;13.744;2022-09-09T03:10:59;99969.66;;;15.23;71.63
74403;BME280;62837;51.082;13.744;2022-09-09T03:13:33;99975.17;;;15.21;71.76
74403;BME280;62837;51.082;13.744;2022-09-09T03:16:04;99967.29;;;15.22;71.58
74403;BME280;62837;51.082;13.744;2022-09-09T03:18:40;99964.15;;;15.17;71.78
74403;BME280;62837;51.082;13.744;2022-09-09T03:21:10;99974.26;;;15.27;71.57
74403;BME280;62837;51.082;13.744;2022-09-09T03:23:43;99979.59;;;15.26;71.59
74403;BME280;62837;51.082;13.744;2022-09-09T03:26:15;99973.54;;;15.26;71.72
74403;BME280;62837;51.082;13.744;2022-09-09T03:28:47;99974.58;;;15.24;71.39
74403;BME280;62837;51.082;13.744;2022-09-09T03:31:20;99975.41;;;15.16;71.68
74403;BME280;62837;51.082;13.744;2022-09-09T03:33:51;99974.95;;;15.14;71.83
74403;BME280;62837;51.082;13.744;2022-09-09T03:36:23;99972.98;;;15.11;71.85
74403;BME280;62837;51.082;13.744;2022-09-09T03:38:54;99976.58;;;15.12;71.62
74403;BME280;62837;51.082;13.744;2022-09-09T03:41:26;99972.25;;;15.16;71.78
74403;BME280;62837;51.082;13.744;2022-09-09T03:43:57;99968.34;;;15.22;71.82
74403;BME280;62837;51.082;13.744;2022-09-09T03:46:28;99966.80;;;15.25;71.48
74403;BME280;62837;51.082;13.744;2022-09-09T03:48:59;99961.08;;;15.26;71.43
74403;BME280;62837;51.082;13.744;2022-09-09T03:51:31;99963.05;;;15.28;71.43
74403;BME280;62837;51.082;13.744;2022-09-09T03:54:07;99963.08;;;15.32;72.12
74403;BME280;62837;51.082;13.744;2022-09-09T03:56:39;99963.98;;;15.34;71.81
74403;BME280;62837;51.082;13.744;2022-09-09T03:59:12;99962.61;;;15.30;71.63
74403;BME280;62837;51.082;13.744;2022-09-09T04:01:43;99968.98;;;15.38;71.45
74403;BME280;62837;51.082;13.744;2022-09-09T04:04:15;99970.41;;;15.38;71.25
74403;BME280;62837;51.082;13.744;2022-09-09T04:06:45;99968.16;;;15.37;71.19
74403;BME280;62837;51.082;13.744;2022-09-09T04:09:17;99970.94;;;15.37;71.37
74403;BME280;62837;51.082;13.744;2022-09-09T04:11:49;99971.88;;;15.38;71.57
74403;BME280;62837;51.082;13.744;2022-09-09T04:14:21;99979.52;;;15.33;71.54
74403;BME280;62837;51.082;13.744;2022-09-09T04:16:52;99978.56;;;15.28;71.63
74403;BME280;62837;51.082;13.744;2022-09-09T04:19:23;99982.34;;;15.30;71.50
74403;BME280;62837;51.082;13.744;2022-09-09T04:21:54;99979.42;;;15.33;71.40
74403;BME280;62837;51.082;13.744;2022-09-09T04:24:24;99983.36;;;15.29;71.46
74403;BME280;62837;51.082;13.744;2022-09-09T04:26:59;99987.83;;;15.26;72.01
74403;BME280;62837;51.082;13.744;2022-09-09T04:29:30;99986.81;;;15.28;71.81
74403;BME280;62837;51.082;13.744;2022-09-09T04:32:01;99988.73;;;15.25;71.49
74403;BME280;62837;51.082;13.744;2022-09-09T04:34:32;99981.98;;;15.21;71.84
74403;BME280;62837;51.082;13.744;2022-09-09T04:37:03;99985.02;;;15.15;71.85
74403;BME280;62837;51.082;13.744;2022-09-09T04:39:34;99988.52;;;15.14;72.09
74403;BME280;62837;51.082;13.744;2022-09-09T04:42:05;99986.21;;;15.16;72.03
74403;BME280;62837;51.082;13.744;2022-09-09T04:44:36;99983.50;;;15.15;71.99
74403;BME280;62837;51.082;13.744;2022-09-09T04:47:07;99981.45;;;15.15;72.09
74403;BME280;62837;51.082;13.744;2022-09-09T04:49:38;99987.05;;;15.19;71.91
74403;BME280;62837;51.082;13.744;2022-09-09T04:52:10;99992.52;;;15.24;72.08
74403;BME280;62837;51.082;13.744;2022-09-09T04:54:41;99991.66;;;15.29;71.84
74403;BME280;62837;51.082;13.744;2022-09-09T04:57:13;99981.65;;;15.32;71.74
74403;BME280;62837;51.082;13.744;2022-09-09T04:59:47;99980.17;;;15.37;71.71
74403;BME280;62837;51.082;13.744;2022-09-09T05:02:18;99980.47;;;15.48;71.57
74403;BME280;62837;51.082;13.744;2022-09-09T05:04:49;99981.36;;;15.56;71.52
74403;BME280;62837;51.082;13.744;2022-09-09T05:07:20;99984.04;;;15.61;71.25
74403;BME280;62837;51.082;13.744;2022-09-09T05:09:50;99986.20;;;15.61;71.05
74403;BME280;62837;51.082;13.744;2022-09-09T05:12:24;99988.90;;;15.63;71.42
74403;BME280;62837;51.082;13.744;2022-09-09T05:14:57;99990.88;;;15.67;71.60
74403;BME280;62837;51.082;13.744;2022-09-09T05:17:28;99990.26;;;15.70;71.19
74403;BME280;62837;51.082;13.744;2022-09-09T05:19:59;99993.21;;;15.73;71.08
74403;BME280;62837;51.082;13.744;2022-09-09T05:22:30;99990.33;;;15.79;70.70
74403;BME280;62837;51.082;13.744;2022-09-09T05:25:00;99984.85;;;15.85;70.54
74403;BME280;62837;51.082;13.744;2022-09-09T05:27:33;99985.79;;;15.92;70.54
74403;BME280;62837;51.082;13.744;2022-09-09T05:30:05;99989.35;;;16.01;70.41
74403;BME280;62837;51.082;13.744;2022-09-09T05:32:36;99989.48;;;16.10;70.13
74403;BME280;62837;51.082;13.744;2022-09-09T05:35:08;99994.21;;;16.17;70.01
74403;BME280;62837;51.082;13.744;2022-09-09T05:37:40;100003.41;;;16.29;69.79
74403;BME280;62837;51.082;13.744;2022-09-09T05:40:12;99999.02;;;16.47;69.46
74403;BME280;62837;51.082;13.744;2022-09-09T05:42:43;100007.83;;;16.66;69.14
74403;BME280;62837;51.082;13.744;2022-09-09T05:45:14;100006.96;;;16.73;68.62
74403;BME280;62837;51.082;13.744;2022-09-09T05:47:45;100010.09;;;16.78;68.47
74403;BME280;62837;51.082;13.744;2022-09-09T05:50:22;100008.17;;;16.85;68.15
74403;BME280;62837;51.082;13.744;2022-09-09T05:52:58;100010.30;;;16.92;68.06
74403;BME280;62837;51.082;13.744;2022-09-09T05:55:28;100009.60;;;16.99;67.88
74403;BME280;62837;51.082;13.744;2022-09-09T05:58:00;100017.37;;;17.01;67.52
74403;BME280;62837;51.082;13.744;2022-09-09T06:00:32;100021.94;;;17.00;67.54
74403;BME280;62837;51.082;13.744;2022-09-09T06:03:02;100022.68;;;17.00;67.71
74403;BME280;62837;51.082;13.744;2022-09-09T06:05:33;100020.99;;;16.98;67.75
74403;BME280;62837;51.082;13.744;2022-09-09T06:08:04;100022.07;;;16.97;67.47
74403;BME280;62837;51.082;13.744;2022-09-09T06:10:36;100022.27;;;16.98;67.34
74403;BME280;62837;51.082;13.744;2022-09-09T06:13:07;100020.30;;;16.97;67.32
74403;BME280;62837;51.082;13.744;2022-09-09T06:15:40;100021.95;;;17.00;67.26
74403;BME280;62837;51.082;13.744;2022-09-09T06:18:20;100015.20;;;17.06;67.08
74403;BME280;62837;51.082;13.744;2022-09-09T06:20:59;100019.48;;;17.16;66.85
74403;BME280;62837;51.082;13.744;2022-09-09T06:23:31;100023.77;;;17.23;66.65
74403;BME280;62837;51.082;13.744;2022-09-09T06:26:08;100024.15;;;17.29;66.39
74403;BME280;62837;51.082;13.744;2022-09-09T06:28:39;100019.52;;;17.34;66.38
74403;BME280;62837;51.082;13.744;2022-09-09T06:31:13;100024.14;;;17.38;66.28
74403;BME280;62837;51.082;13.744;2022-09-09T06:33:47;100029.60;;;17.48;66.43
74403;BME280;62837;51.082;13.744;2022-09-09T06:36:20;100026.83;;;17.60;66.28
74403;BME280;62837;51.082;13.744;2022-09-09T06:38:52;100027.38;;;17.71;65.96
74403;BME280;62837;51.082;13.744;2022-09-09T06:41:24;100022.06;;;17.81;65.74
74403;BME280;62837;51.082;13.744;2022-09-09T06:43:56;100024.52;;;17.89;65.53
74403;BME280;62837;51.082;13.744;2022-09-09T06:46:34;100023.27;;;17.95;65.36
74403;BME280;62837;51.082;13.744;2022-09-09T06:49:05;100026.95;;;18.01;65.35
74403;BME280;62837;51.082;13.744;2022-09-09T06:51:37;100020.96;;;18.13;65.55
74403;BME280;62837;51.082;13.744;2022-09-09T06:54:13;100021.84;;;18.36;65.30
74403;BME280;62837;51.082;13.744;2022-09-09T06:56:45;100015.44;;;18.55;65.33
74403;BME280;62837;51.082;13.744;2022-09-09T06:59:23;100019.09;;;18.63;65.13
74403;BME280;62837;51.082;13.744;2022-09-09T07:01:55;100019.08;;;18.64;64.43
74403;BME280;62837;51.082;13.744;2022-09-09T07:04:26;100020.61;;;18.68;63.94
74403;BME280;62837;51.082;13.744;2022-09-09T07:06:57;100020.38;;;18.74;63.59
74403;BME280;62837;51.082;13.744;2022-09-09T07:09:29;100015.15;;;18.79;63.27
74403;BME280;62837;51.082;13.744;2022-09-09T07:12:01;100019.23;;;18.86;62.82
74403;BME280;62837;51.082;13.744;2022-09-09T07:17:05;100015.71;;;18.83;62.98
74403;BME280;62837;51.082;13.744;2022-09-09T07:19:38;100012.70;;;18.86;62.72
74403;BME280;62837;51.082;13.744;2022-09-09T07:22:09;100011.39;;;19.05;62.68
74403;BME280;62837;51.082;13.744;2022-09-09T07:24:40;100012.36;;;19.18;62.36
74403;BME280;62837;51.082;13.744;2022-09-09T07:27:10;100012.67;;;19.57;61.59
74403;BME280;62837;51.082;13.744;2022-09-09T07:29:42;100013.27;;;19.85;61.27
74403;BME280;62837;51.082;13.744;2022-09-09T07:32:14;100011.67;;;20.02;60.69
74403;BME280;62837;51.082;13.744;2022-09-09T07:34:46;100011.19;;;20.28;60.38
74403;BME280;62837;51.082;13.744;2022-09-09T07:37:16;100010.13;;;20.30;59.81
74403;BME280;62837;51.082;13.744;2022-09-09T07:39:47;100015.13;;;20.32;59.70
74403;BME280;62837;51.082;13.744;2022-09-09T07:42:19;100015.60;;;20.63;58.98
74403;BME280;62837;51.082;13.744;2022-09-09T07:44:51;100011.04;;;20.93;58.26
74403;BME280;62837;51.082;13.744;2022-09-09T07:47:24;100010.61;;;21.26;57.70
74403;BME280;62837;51.082;13.744;2022-09-09T07:49:54;100013.26;;;21.52;56.78
74403;BME280;62837;51.082;13.744;2022-09-09T07:52:28;100014.30;;;21.73;56.14
74403;BME280;62837;51.082;13.744;2022-09-09T07:55:02;100013.73;;;21.73;55.87
74403;BME280;62837;51.082;13.744;2022-09-09T07:57:34;100016.89;;;21.74;55.87
74403;BME280;62837;51.082;13.744;2022-09-09T08:00:08;100017.12;;;21.85;56.35
74403;BME280;62837;51.082;13.744;2022-09-09T08:02:44;100020.61;;;22.00;55.61
74403;BME280;62837;51.082;13.744;2022-09-09T08:05:16;100025.30;;;21.92;55.88
74403;BME280;62837;51.082;13.744;2022-09-09T08:07:47;100023.27;;;21.82;55.41
74403;BME280;62837;51.082;13.744;2022-09-09T08:10:18;100022.77;;;21.75;55.42
74403;BME280;62837;51.082;13.744;2022-09-09T08:12:50;100026.50;;;21.66;55.28
74403;BME280;62837;51.082;13.744;2022-09-09T08:15:41;100025.95;;;21.54;55.89
74403;BME280;62837;51.082;13.744;2022-09-09T08:18:14;100021.48;;;21.48;56.33
74403;BME280;62837;51.082;13.744;2022-09-09T08:20:45;100021.96;;;21.40;56.49
74403;BME280;62837;51.082;13.744;2022-09-09T08:23:16;100026.30;;;21.32;56.63
74403;BME280;62837;51.082;13.744;2022-09-09T08:25:47;100022.25;;;21.25;57.22
74403;BME280;62837;51.082;13.744;2022-09-09T08:28:20;100023.09;;;21.22;57.74
74403;BME280;62837;51.082;13.744;2022-09-09T08:30:50;100021.17;;;21.22;57.66
74403;BME280;62837;51.082;13.744;2022-09-09T08:33:23;100026.19;;;21.19;58.26
74403;BME280;62837;51.082;13.744;2022-09-09T08:35:53;100033.00;;;21.20;58.37
74403;BME280;62837;51.082;13.744;2022-09-09T08:38:25;100037.50;;;21.21;58.30
74403;BME280;62837;51.082;13.744;2022-09-09T08:41:02;100035.60;;;21.18;58.14
74403;BME280;62837;51.082;13.744;2022-09-09T08:43:37;100035.35;;;21.14;58.23
74403;BME280;62837;51.082;13.744;2022-09-09T08:46:13;100036.69;;;21.11;58.31
74403;BME280;62837;51.082;13.744;2022-09-09T08:48:55;100041.91;;;21.10;58.81
74403;BME280;62837;51.082;13.744;2022-09-09T08:51:29;100036.11;;;21.13;59.27
74403;BME280;62837;51.082;13.744;2022-09-09T08:54:04;100040.39;;;21.21;59.78
74403;BME280;62837;51.082;13.744;2022-09-09T08:56:35;100037.98;;;21.49;60.01
74403;BME280;62837;51.082;13.744;2022-09-09T08:59:07;100039.42;;;21.76;59.05
74403;BME280;62837;51.082;13.744;2022-09-09T09:01:48;100037.75;;;21.95;58.28
74403;BME280;62837;51.082;13.744;2022-09-09T09:04:38;100036.39;;;21.99;57.82
74403;BME280;62837;51.082;13.744;2022-09-09T09:07:21;100032.34;;;22.00;57.83
74403;BME280;62837;51.082;13.744;2022-09-09T09:10:08;100029.13;;;21.97;57.58
74403;BME280;62837;51.082;13.744;2022-09-09T09:13:01;100032.59;;;21.90;57.62
74403;BME280;62837;51.082;13.744;2022-09-09T09:15:38;100034.23;;;21.84;57.95
74403;BME280;62837;51.082;13.744;2022-09-09T09:18:12;100033.13;;;21.76;58.44
74403;BME280;62837;51.082;13.744;2022-09-09T09:20:53;100039.20;;;21.68;58.47
74403;BME280;62837;51.082;13.744;2022-09-09T09:23:29;100040.64;;;21.58;58.70
74403;BME280;62837;51.082;13.744;2022-09-09T09:26:09;100045.10;;;21.45;59.01
74403;BME280;62837;51.082;13.744;2022-09-09T09:28:41;100054.01;;;21.32;59.41
74403;BME280;62837;51.082;13.744;2022-09-09T09:31:16;100054.70;;;21.16;59.42
74403;BME280;62837;51.082;13.744;2022-09-09T09:33:51;100065.48;;;21.06;60.22
74403;BME280;62837;51.082;13.744;2022-09-09T09:36:33;100065.87;;;20.93;61.15
74403;BME280;62837;51.082;13.744;2022-09-09T09:39:05;100065.16;;;20.83;61.51
74403;BME280;62837;51.082;13.744;2022-09-09T09:41:56;100061.70;;;20.75;62.60
74403;BME280;62837;51.082;13.744;2022-09-09T09:44:35;100059.63;;;20.71;63.79
74403;BME280;62837;51.082;13.744;2022-09-09T09:47:13;100057.48;;;20.72;63.79
74403;BME280;62837;51.082;13.744;2022-09-09T09:49:57;100061.80;;;20.77;63.25
74403;BME280;62837;51.082;13.744;2022-09-09T09:52:38;100058.64;;;20.97;63.90
74403;BME280;62837;51.082;13.744;2022-09-09T09:55:15;100056.25;;;21.11;64.09
74403;BME280;62837;51.082;13.744;2022-09-09T09:57:46;100050.15;;;21.43;63.55
74403;BME280;62837;51.082;13.744;2022-09-09T10:00:19;100050.61;;;21.65;62.83
74403;BME280;62837;51.082;13.744;2022-09-09T10:03:00;100045.92;;;22.00;61.83
74403;BME280;62837;51.082;13.744;2022-09-09T10:05:37;100048.73;;;22.36;60.40
74403;BME280;62837;51.082;13.744;2022-09-09T10:08:17;100043.85;;;22.61;59.53
74403;BME280;62837;51.082;13.744;2022-09-09T10:10:55;100045.83;;;22.72;59.25
74403;BME280;62837;51.082;13.744;2022-09-09T10:13:33;100043.65;;;22.90;58.70
74403;BME280;62837;51.082;13.744;2022-09-09T10:16:19;100034.58;;;23.06;57.71
74403;BME280;62837;51.082;13.744;2022-09-09T10:19:00;100034.64;;;23.21;57.17
74403;BME280;62837;51.082;13.744;2022-09-09T10:21:44;100036.25;;;23.28;57.17
74403;BME280;62837;51.082;13.744;2022-09-09T10:24:35;100036.45;;;23.32;56.99
74403;BME280;62837;51.082;13.744;2022-09-09T10:27:17;100037.63;;;23.38;55.93
74403;BME280;62837;51.082;13.744;2022-09-09T10:30:06;100031.62;;;23.44;55.62
74403;BME280;62837;51.082;13.744;2022-09-09T10:32:44;100030.00;;;23.48;56.28
74403;BME280;62837;51.082;13.744;2022-09-09T10:35:26;100027.63;;;23.54;56.06
74403;BME280;62837;51.082;13.744;2022-09-09T10:38:12;100024.88;;;23.58;55.34
74403;BME280;62837;51.082;13.744;2022-09-09T10:40:50;100022.84;;;23.60;55.90
74403;BME280;62837;51.082;13.744;2022-09-09T10:43:49;100017.06;;;23.68;55.38
74403;BME280;62837;51.082;13.744;2022-09-09T10:46:34;100018.21;;;23.69;54.17
74403;BME280;62837;51.082;13.744;2022-09-09T10:49:18;100011.65;;;23.67;54.40
74403;BME280;62837;51.082;13.744;2022-09-09T10:51:58;100009.81;;;23.70;54.55
74403;BME280;62837;51.082;13.744;2022-09-09T10:54:43;100005.51;;;23.71;53.96
74403;BME280;62837;51.082;13.744;2022-09-09T10:57:27;100001.15;;;23.62;52.35
74403;BME280;62837;51.082;13.744;2022-09-09T11:00:05;99999.30;;;23.48;52.49
74403;BME280;62837;51.082;13.744;2022-09-09T11:02:37;99990.63;;;23.43;52.82
74403;BME280;62837;51.082;13.744;2022-09-09T11:05:16;99998.30;;;23.47;51.73
74403;BME280;62837;51.082;13.744;2022-09-09T11:07:52;99994.55;;;23.38;51.08
74403;BME280;62837;51.082;13.744;2022-09-09T11:10:39;99992.64;;;23.26;51.72
74403;BME280;62837;51.082;13.744;2022-09-09T11:13:17;99992.35;;;23.06;52.21
74403;BME280;62837;51.082;13.744;2022-09-09T11:15:54;99994.90;;;22.84;52.82
74403;BME280;62837;51.082;13.744;2022-09-09T11:18:30;99991.36;;;22.62;53.21
74403;BME280;62837;51.082;13.744;2022-09-09T11:21:03;99984.92;;;22.45;53.27
74403;BME280;62837;51.082;13.744;2022-09-09T11:23:42;99987.41;;;22.31;53.63
74403;BME280;62837;51.082;13.744;2022-09-09T11:26:18;99986.17;;;22.17;54.19
74403;BME280;62837;51.082;13.744;2022-09-09T11:29:06;99993.70;;;22.06;54.49
74403;BME280;62837;51.082;13.744;2022-09-09T11:31:46;99995.71;;;21.96;55.34
74403;BME280;62837;51.082;13.744;2022-09-09T11:34:38;99994.61;;;21.87;56.04
74403;BME280;62837;51.082;13.744;2022-09-09T11:37:21;99989.88;;;21.83;56.75
74403;BME280;62837;51.082;13.744;2022-09-09T11:40:20;99984.59;;;21.78;57.04
74403;BME280;62837;51.082;13.744;2022-09-09T11:43:02;99981.91;;;21.82;57.83
74403;BME280;62837;51.082;13.744;2022-09-09T11:45:36;99968.77;;;21.96;56.87
74403;BME280;62837;51.082;13.744;2022-09-09T11:48:25;99976.74;;;21.92;56.79
74403;BME280;62837;51.082;13.744;2022-09-09T11:51:04;99994.59;;;21.87;57.07
74403;BME280;62837;51.082;13.744;2022-09-09T11:53:51;99993.14;;;21.89;56.78
74403;BME280;62837;51.082;13.744;2022-09-09T11:56:28;99993.18;;;21.81;56.49
74403;BME280;62837;51.082;13.744;2022-09-09T11:59:02;99986.45;;;21.77;56.35
74403;BME280;62837;51.082;13.744;2022-09-09T12:01:39;99979.40;;;21.76;56.72
74403;BME280;62837;51.082;13.744;2022-09-09T12:04:29;99975.16;;;21.76;56.20
74403;BME280;62837;51.082;13.744;2022-09-09T12:07:03;99971.67;;;21.93;56.20
74403;BME280;62837;51.082;13.744;2022-09-09T12:09:49;99972.18;;;22.15;56.06
74403;BME280;62837;51.082;13.744;2022-09-09T12:12:38;99970.42;;;22.36;55.56
74403;BME280;62837;51.082;13.744;2022-09-09T12:15:25;99964.56;;;22.49;55.00
74403;BME280;62837;51.082;13.744;2022-09-09T12:17:59;99962.67;;;22.41;54.21
74403;BME280;62837;51.082;13.744;2022-09-09T12:20:37;99954.50;;;22.34;54.41
74403;BME280;62837;51.082;13.744;2022-09-09T12:23:27;99947.28;;;22.28;54.37
74403;BME280;62837;51.082;13.744;2022-09-09T12:26:10;99946.91;;;22.22;54.34
74403;BME280;62837;51.082;13.744;2022-09-09T12:28:54;99947.91;;;22.14;54.44
74403;BME280;62837;51.082;13.744;2022-09-09T12:31:32;99948.83;;;22.06;54.66
74403;BME280;62837;51.082;13.744;2022-09-09T12:34:11;99944.29;;;22.00;55.08
74403;BME280;62837;51.082;13.744;2022-09-09T12:36:46;99941.41;;;21.96;55.56
74403;BME280;62837;51.082;13.744;2022-09-09T12:39:29;99943.61;;;21.93;55.88
74403;BME280;62837;51.082;13.744;2022-09-09T12:42:03;99945.69;;;22.04;56.27
74403;BME280;62837;51.082;13.744;2022-09-09T12:44:34;99941.60;;;22.21;56.35
74403;BME280;62837;51.082;13.744;2022-09-09T12:47:05;99933.40;;;22.37;56.64
74403;BME280;62837;51.082;13.744;2022-09-09T12:49:38;99931.59;;;22.49;56.80
74403;BME280;62837;51.082;13.744;2022-09-09T12:52:15;99932.50;;;22.60;56.65
74403;BME280;62837;51.082;13.744;2022-09-09T12:54:48;99929.95;;;22.69;56.51
74403;BME280;62837;51.082;13.744;2022-09-09T12:57:21;99935.03;;;22.78;56.18
74403;BME280;62837;51.082;13.744;2022-09-09T13:00:06;99932.55;;;22.83;56.15
74403;BME280;62837;51.082;13.744;2022-09-09T13:02:47;99922.91;;;22.87;56.27
74403;BME280;62837;51.082;13.744;2022-09-09T13:05:23;99912.23;;;22.94;55.80
74403;BME280;62837;51.082;13.744;2022-09-09T13:08:02;99910.48;;;23.02;55.13
74403;BME280;62837;51.082;13.744;2022-09-09T13:10:35;99909.52;;;22.99;54.24
74403;BME280;62837;51.082;13.744;2022-09-09T13:13:30;99896.99;;;22.88;53.62
74403;BME280;62837;51.082;13.744;2022-09-09T13:16:06;99891.32;;;22.82;53.45
74403;BME280;62837;51.082;13.744;2022-09-09T13:18:47;99892.98;;;22.78;53.55
74403;BME280;62837;51.082;13.744;2022-09-09T13:21:18;99891.16;;;22.76;53.37
74403;BME280;62837;51.082;13.744;2022-09-09T13:23:52;99894.58;;;22.83;53.03
74403;BME280;62837;51.082;13.744;2022-09-09T13:26:24;99892.10;;;22.80;53.16
74403;BME280;62837;51.082;13.744;2022-09-09T13:29:07;99891.02;;;22.77;53.28
74403;BME280;62837;51.082;13.744;2022-09-09T13:31:38;99891.74;;;22.72;53.07
74403;BME280;62837;51.082;13.744;2022-09-09T13:34:13;99891.80;;;22.66;53.51